createdAt,value
2023-12-29T00:02:24.633Z,21.99
2023-12-29T00:04:51.038Z,21.98
2023-12-29T00:07:20.258Z,21.98
2023-12-29T00:09:43.837Z,21.97
2023-12-29T00:12:10.320Z,22.01
2023-12-29T00:14:36.678Z,21.99
2023-12-29T00:17:03.024Z,22.03
2023-12-29T00:19:29.536Z,22.03
2023-12-29T00:21:55.789Z,22.02
2023-12-29T00:24:22.205Z,22.02
2023-12-29T00:26:48.638Z,22.02
2023-12-29T00:29:14.979Z,22.03
2023-12-29T00:31:41.464Z,22.04
2023-12-29T00:34:07.856Z,22.01
2023-12-29T00:36:34.148Z,22.03
2023-12-29T00:39:00.608Z,22.04
2023-12-29T00:41:27.144Z,22.04
2023-12-29T00:43:53.433Z,22.04
2023-12-29T00:46:19.936Z,22.04
2023-12-29T00:48:46.440Z,22.04
2023-12-29T00:51:12.789Z,22.03
2023-12-29T00:53:39.201Z,22.04
2023-12-29T00:56:05.640Z,22.03
2023-12-29T00:58:31.960Z,22.04
2023-12-29T01:00:58.374Z,22.03
2023-12-29T01:03:26.502Z,22.03
2023-12-29T01:05:51.199Z,22.06
2023-12-29T01:08:17.495Z,22.05
2023-12-29T01:10:43.927Z,22.06
2023-12-29T01:13:10.305Z,22.05
2023-12-29T01:15:36.699Z,22.08
2023-12-29T01:18:03.485Z,22.08
2023-12-29T01:20:29.459Z,22.08
2023-12-29T01:22:55.891Z,22.08
2023-12-29T01:25:22.377Z,22.07
2023-12-29T01:27:48.758Z,22.08
2023-12-29T01:30:15.197Z,22.08
2023-12-29T01:32:41.522Z,22.08
2023-12-29T01:35:07.806Z,22.08
2023-12-29T01:37:34.286Z,22.08
2023-12-29T01:40:00.652Z,22.09
2023-12-29T01:42:27.163Z,22.10
2023-12-29T01:44:53.587Z,22.10
2023-12-29T01:47:19.941Z,22.11
2023-12-29T01:49:46.479Z,22.13
2023-12-29T01:52:12.717Z,22.12
2023-12-29T01:54:39.137Z,22.12
2023-12-29T01:57:05.498Z,22.12
2023-12-29T01:59:31.739Z,22.13
2023-12-29T02:01:58.161Z,22.13
2023-12-29T02:04:24.641Z,22.11
2023-12-29T02:06:52.248Z,22.11
2023-12-29T02:09:17.239Z,22.12
2023-12-29T02:11:43.734Z,22.11
2023-12-29T02:14:10.083Z,22.12
2023-12-29T02:16:36.411Z,22.12
2023-12-29T02:19:02.920Z,22.13
2023-12-29T02:21:29.296Z,22.12
2023-12-29T02:23:59.183Z,22.14
2023-12-29T02:26:25.632Z,22.12
2023-12-29T02:28:52.031Z,22.13
2023-12-29T02:31:18.635Z,22.13
2023-12-29T02:33:45.054Z,22.13
2023-12-29T02:36:11.207Z,22.13
2023-12-29T02:38:37.601Z,22.14
2023-12-29T02:41:04.012Z,22.13
2023-12-29T02:43:30.450Z,22.13
2023-12-29T02:45:56.989Z,22.13
2023-12-29T02:48:23.500Z,22.13
2023-12-29T02:50:49.742Z,22.14
2023-12-29T02:53:16.216Z,22.14
2023-12-29T02:55:42.603Z,22.14
2023-12-29T02:58:09.086Z,22.16
2023-12-29T03:00:35.583Z,22.14
2023-12-29T03:03:01.946Z,22.16
2023-12-29T03:05:28.202Z,22.17
2023-12-29T03:07:54.580Z,22.18
2023-12-29T03:10:21.001Z,22.16
2023-12-29T03:12:47.317Z,22.16
2023-12-29T03:15:13.669Z,22.14
2023-12-29T03:17:40.112Z,22.14
2023-12-29T03:20:06.826Z,22.13
2023-12-29T03:22:32.955Z,22.13
2023-12-29T03:24:59.445Z,22.12
2023-12-29T03:27:25.695Z,22.14
2023-12-29T03:29:52.214Z,22.14
2023-12-29T03:32:18.607Z,22.13
2023-12-29T03:34:45.233Z,22.13
2023-12-29T03:37:11.459Z,22.14
2023-12-29T03:39:37.891Z,22.13
2023-12-29T03:42:04.288Z,22.13
2023-12-29T03:44:30.645Z,22.13
2023-12-29T03:46:56.938Z,22.13
2023-12-29T03:49:23.323Z,22.12
2023-12-29T03:51:49.898Z,22.12
2023-12-29T03:54:16.285Z,22.12
2023-12-29T03:56:42.614Z,22.12
2023-12-29T03:59:09.040Z,22.13
2023-12-29T04:01:35.585Z,22.14
2023-12-29T04:04:01.945Z,22.14
2023-12-29T04:06:28.257Z,22.14
2023-12-29T04:08:54.622Z,22.14
2023-12-29T04:11:20.944Z,22.17
2023-12-29T04:13:47.354Z,22.14
2023-12-29T04:16:13.795Z,22.17
2023-12-29T04:18:40.412Z,22.17
2023-12-29T04:21:06.530Z,22.16
2023-12-29T04:23:32.980Z,22.16
2023-12-29T04:25:59.420Z,22.12
2023-12-29T04:28:25.856Z,22.12
2023-12-29T04:30:52.275Z,22.16
2023-12-29T04:33:18.505Z,22.17
2023-12-29T04:35:44.938Z,22.19
2023-12-29T04:38:11.378Z,22.19
2023-12-29T04:40:37.814Z,22.19
2023-12-29T04:43:04.283Z,22.19
2023-12-29T04:45:30.736Z,22.20
2023-12-29T04:47:57.120Z,22.21
2023-12-29T04:50:23.466Z,22.20
2023-12-29T04:52:49.826Z,22.21
2023-12-29T04:55:16.372Z,22.21
2023-12-29T04:57:42.657Z,22.21
2023-12-29T05:00:09.084Z,22.21
2023-12-29T05:02:35.570Z,22.24
2023-12-29T05:05:01.932Z,22.27
2023-12-29T05:07:28.189Z,22.33
2023-12-29T05:09:54.588Z,22.37
2023-12-29T05:12:20.956Z,22.57
2023-12-29T05:14:47.360Z,22.62
2023-12-29T05:17:13.799Z,22.52
2023-12-29T05:19:40.382Z,22.48
2023-12-29T05:22:06.727Z,22.55
2023-12-29T05:24:33.152Z,22.52
2023-12-29T05:26:59.448Z,22.52
2023-12-29T05:29:25.789Z,22.57
2023-12-29T05:31:52.222Z,22.60
2023-12-29T05:34:18.663Z,22.54
2023-12-29T05:36:46.236Z,22.57
2023-12-29T05:39:11.496Z,22.62
2023-12-29T05:41:37.784Z,22.63
2023-12-29T05:44:04.263Z,22.64
2023-12-29T05:46:30.809Z,22.65
2023-12-29T05:48:57.215Z,22.67
2023-12-29T05:51:23.662Z,22.67
2023-12-29T05:53:50.085Z,22.81
2023-12-29T05:56:16.555Z,22.92
2023-12-29T05:58:42.970Z,22.92
2023-12-29T06:01:09.453Z,22.92
2023-12-29T06:03:35.975Z,22.92
2023-12-29T06:06:02.367Z,23.01
2023-12-29T06:08:28.797Z,22.95
2023-12-29T06:10:55.097Z,22.98
2023-12-29T06:13:21.414Z,22.93
2023-12-29T06:15:47.934Z,22.95
2023-12-29T06:18:14.330Z,22.94
2023-12-29T06:20:40.569Z,22.96
2023-12-29T06:23:06.894Z,22.99
2023-12-29T06:25:34.483Z,23.03
2023-12-29T06:27:59.915Z,23.02
2023-12-29T06:30:26.110Z,23.09
2023-12-29T06:32:52.434Z,23.08
2023-12-29T06:35:18.750Z,23.14
2023-12-29T06:37:45.128Z,23.17
2023-12-29T06:40:11.498Z,23.22
2023-12-29T06:42:37.999Z,23.23
2023-12-29T06:45:04.514Z,23.25
2023-12-29T06:47:30.968Z,23.26
2023-12-29T06:49:57.392Z,23.24
2023-12-29T06:52:23.951Z,23.28
2023-12-29T06:54:50.387Z,23.36
2023-12-29T06:57:16.823Z,23.39
2023-12-29T06:59:43.109Z,23.40
2023-12-29T07:02:09.533Z,23.31
2023-12-29T07:04:35.955Z,23.30
2023-12-29T07:07:02.660Z,23.39
2023-12-29T07:09:28.834Z,23.29
2023-12-29T07:11:55.256Z,23.34
2023-12-29T07:14:21.715Z,23.35
2023-12-29T07:16:48.127Z,23.34
2023-12-29T07:19:14.578Z,23.34
2023-12-29T07:21:40.811Z,23.31
2023-12-29T07:24:07.223Z,23.28
2023-12-29T07:26:35.062Z,23.26
2023-12-29T07:28:59.993Z,23.21
2023-12-29T07:31:26.367Z,23.21
2023-12-29T07:33:52.806Z,23.23
2023-12-29T07:36:18.995Z,23.20
2023-12-29T07:38:45.326Z,23.25
2023-12-29T07:41:11.846Z,23.29
2023-12-29T07:43:38.216Z,23.26
2023-12-29T07:46:04.600Z,23.25
2023-12-29T07:48:31.040Z,23.25
2023-12-29T07:50:57.430Z,23.24
2023-12-29T07:53:23.711Z,23.25
2023-12-29T07:55:50.152Z,23.24
2023-12-29T07:58:16.627Z,23.24
2023-12-29T08:00:42.972Z,23.21
2023-12-29T08:03:09.454Z,23.24
2023-12-29T08:05:35.734Z,23.27
2023-12-29T08:08:02.620Z,23.29
2023-12-29T08:10:28.641Z,23.29
2023-12-29T08:12:55.123Z,23.29
2023-12-29T08:15:21.446Z,23.27
2023-12-29T08:17:47.855Z,23.29
2023-12-29T08:20:14.258Z,23.28
2023-12-29T08:22:40.655Z,23.30
2023-12-29T08:25:07.207Z,23.29
2023-12-29T08:27:33.636Z,23.32
2023-12-29T08:30:00.060Z,23.28
2023-12-29T08:32:26.410Z,23.29
2023-12-29T08:34:52.853Z,23.29
2023-12-29T08:37:19.131Z,23.28
2023-12-29T08:39:45.462Z,23.29
2023-12-29T08:42:11.807Z,23.30
2023-12-29T08:44:38.133Z,23.31
2023-12-29T08:47:04.630Z,23.28
2023-12-29T08:49:31.295Z,23.30
2023-12-29T08:51:57.552Z,23.31
2023-12-29T08:54:23.984Z,23.31
2023-12-29T08:56:50.261Z,23.32
2023-12-29T08:59:16.776Z,23.34
2023-12-29T09:01:43.312Z,23.34
2023-12-29T09:04:09.543Z,23.36
2023-12-29T09:06:35.963Z,23.38
2023-12-29T09:09:02.284Z,23.35
2023-12-29T09:11:28.642Z,23.35
2023-12-29T09:13:55.079Z,23.39
2023-12-29T09:16:21.466Z,23.43
2023-12-29T09:18:47.832Z,23.40
2023-12-29T09:21:14.290Z,23.41
2023-12-29T09:23:40.545Z,23.44
2023-12-29T09:26:06.950Z,23.47
2023-12-29T09:28:33.331Z,23.44
2023-12-29T09:30:59.663Z,23.45
2023-12-29T09:33:26.159Z,23.47
2023-12-29T09:35:52.642Z,23.45
2023-12-29T09:38:19.098Z,23.44
2023-12-29T09:40:45.327Z,23.44
2023-12-29T09:43:11.724Z,23.45
2023-12-29T09:45:38.017Z,23.45
2023-12-29T09:48:06.890Z,23.47
2023-12-29T09:50:30.977Z,23.47
2023-12-29T09:52:57.444Z,23.45
2023-12-29T09:55:23.755Z,23.49
2023-12-29T09:57:50.202Z,23.50
2023-12-29T10:00:16.603Z,23.49
2023-12-29T10:02:42.946Z,23.49
2023-12-29T10:05:09.468Z,23.51
2023-12-29T10:07:35.818Z,23.50
2023-12-29T10:10:02.280Z,23.50
2023-12-29T10:12:28.579Z,23.49
2023-12-29T10:14:54.917Z,23.50
2023-12-29T10:17:21.442Z,23.52
2023-12-29T10:19:47.702Z,23.54
2023-12-29T10:22:14.218Z,23.50
2023-12-29T10:24:40.457Z,23.51
2023-12-29T10:27:06.765Z,23.50
2023-12-29T10:29:33.188Z,23.51
2023-12-29T10:31:59.647Z,23.51
2023-12-29T10:34:26.002Z,23.52
2023-12-29T10:36:52.382Z,23.52
2023-12-29T10:39:18.611Z,23.50
2023-12-29T10:41:45.010Z,23.49
2023-12-29T10:44:11.275Z,23.46
2023-12-29T10:46:37.607Z,23.49
2023-12-29T10:49:04.172Z,23.49
2023-12-29T10:51:30.470Z,23.51
2023-12-29T10:53:56.699Z,23.54
2023-12-29T10:56:23.034Z,23.59
2023-12-29T10:58:49.409Z,23.64
2023-12-29T11:01:15.873Z,23.69
2023-12-29T11:03:42.406Z,23.72
2023-12-29T11:06:08.596Z,23.79
2023-12-29T11:08:35.049Z,23.82
2023-12-29T11:11:01.430Z,23.87
2023-12-29T11:13:27.786Z,23.90
2023-12-29T11:15:54.251Z,23.94
2023-12-29T11:18:20.729Z,23.94
2023-12-29T11:20:47.027Z,23.99
2023-12-29T11:23:13.284Z,24.01
2023-12-29T11:25:39.724Z,24.01
2023-12-29T11:28:06.112Z,24.04
2023-12-29T11:30:32.465Z,24.05
2023-12-29T11:32:59.213Z,24.09
2023-12-29T11:35:27.226Z,24.13
2023-12-29T11:37:51.480Z,24.10
2023-12-29T11:40:17.896Z,24.06
2023-12-29T11:42:44.317Z,24.05
2023-12-29T11:45:10.571Z,24.01
2023-12-29T11:47:37.174Z,23.95
2023-12-29T11:50:03.588Z,23.98
2023-12-29T11:52:29.733Z,23.91
2023-12-29T11:54:56.060Z,23.87
2023-12-29T11:57:22.426Z,23.87
2023-12-29T11:59:48.770Z,23.83
2023-12-29T12:02:15.101Z,23.75
2023-12-29T12:04:42.054Z,23.74
2023-12-29T12:07:07.966Z,23.72
2023-12-29T12:09:34.294Z,23.73
2023-12-29T12:12:00.716Z,23.74
2023-12-29T12:14:27.151Z,23.71
2023-12-29T12:16:53.507Z,23.68
2023-12-29T12:19:19.957Z,23.69
2023-12-29T12:21:46.266Z,23.70
2023-12-29T12:24:12.700Z,23.69
2023-12-29T12:26:39.205Z,23.69
2023-12-29T12:29:05.565Z,23.67
2023-12-29T12:31:31.945Z,23.67
2023-12-29T12:33:58.467Z,23.67
2023-12-29T12:36:24.919Z,23.68
2023-12-29T12:38:51.282Z,23.67
2023-12-29T12:41:19.247Z,23.67
2023-12-29T12:43:44.048Z,23.67
2023-12-29T12:46:10.415Z,23.66
2023-12-29T12:48:36.995Z,23.64
2023-12-29T12:51:03.304Z,23.69
2023-12-29T12:53:29.629Z,23.67
2023-12-29T12:55:55.949Z,23.67
2023-12-29T12:58:22.737Z,23.64
2023-12-29T13:00:51.322Z,23.65
2023-12-29T13:03:15.428Z,23.67
2023-12-29T13:05:41.765Z,23.66
2023-12-29T13:08:08.067Z,23.67
2023-12-29T13:10:34.566Z,23.66
2023-12-29T13:13:01.219Z,23.66
2023-12-29T13:15:27.268Z,23.65
2023-12-29T13:17:53.760Z,23.67
2023-12-29T13:20:20.125Z,23.65
2023-12-29T13:22:46.584Z,23.65
2023-12-29T13:25:12.966Z,23.68
2023-12-29T13:27:39.389Z,23.64
2023-12-29T13:30:05.759Z,23.62
2023-12-29T13:32:32.302Z,23.61
2023-12-29T13:34:58.659Z,23.62
2023-12-29T13:37:24.963Z,23.65
2023-12-29T13:39:51.334Z,23.61
2023-12-29T13:42:17.733Z,23.60
2023-12-29T13:44:44.166Z,23.59
2023-12-29T13:47:10.560Z,23.60
2023-12-29T13:49:37.126Z,23.59
2023-12-29T13:52:03.286Z,23.58
2023-12-29T13:54:29.588Z,23.58
2023-12-29T13:56:55.917Z,23.59
2023-12-29T13:59:22.240Z,23.57
2023-12-29T14:01:48.783Z,23.59
2023-12-29T14:04:15.167Z,23.59
2023-12-29T14:06:42.400Z,23.59
2023-12-29T14:09:08.686Z,23.58
2023-12-29T14:11:35.071Z,23.61
2023-12-29T14:14:01.399Z,23.61
2023-12-29T14:16:27.756Z,23.59
2023-12-29T14:18:54.283Z,23.60
2023-12-29T14:21:20.532Z,23.60
2023-12-29T14:26:13.120Z,23.60
2023-12-29T14:28:39.559Z,23.57
2023-12-29T14:31:05.999Z,23.59
2023-12-29T14:33:32.441Z,23.58
2023-12-29T14:35:58.896Z,23.60
2023-12-29T14:38:25.345Z,23.58
2023-12-29T14:40:51.726Z,23.57
2023-12-29T14:43:18.270Z,23.56
2023-12-29T14:45:44.561Z,23.56
2023-12-29T14:48:11.129Z,23.57
2023-12-29T14:50:37.470Z,23.55
2023-12-29T14:53:03.818Z,23.56
2023-12-29T14:55:30.280Z,23.54
2023-12-29T14:57:56.585Z,23.53
2023-12-29T15:00:22.977Z,23.52
2023-12-29T15:02:49.299Z,23.51
2023-12-29T15:05:15.736Z,23.51
2023-12-29T15:07:42.083Z,23.52
2023-12-29T15:10:08.413Z,23.50
2023-12-29T15:12:34.915Z,23.49
2023-12-29T15:15:01.296Z,23.49
2023-12-29T15:17:27.741Z,23.50
2023-12-29T15:19:57.003Z,23.47
2023-12-29T15:22:23.443Z,23.49
2023-12-29T15:24:49.936Z,23.47
2023-12-29T15:27:16.410Z,23.46
2023-12-29T15:29:42.630Z,23.46
2023-12-29T15:32:09.068Z,23.44
2023-12-29T15:34:35.496Z,23.44
2023-12-29T15:37:01.754Z,23.44
2023-12-29T15:39:28.035Z,23.43
2023-12-29T15:41:54.415Z,23.44
2023-12-29T15:44:20.712Z,23.45
2023-12-29T15:46:47.023Z,23.45
2023-12-29T15:49:13.467Z,23.44
2023-12-29T15:51:39.695Z,23.42
2023-12-29T15:54:05.958Z,23.42
2023-12-29T15:56:32.286Z,23.42
2023-12-29T15:58:58.586Z,23.41
2023-12-29T16:01:25.120Z,23.43
2023-12-29T16:03:51.294Z,23.40
2023-12-29T16:06:17.529Z,23.41
2023-12-29T16:08:43.840Z,23.38
2023-12-29T16:11:10.151Z,23.39
2023-12-29T16:13:36.469Z,23.40
2023-12-29T16:16:02.824Z,23.38
2023-12-29T16:18:29.211Z,23.38
2023-12-29T16:20:55.413Z,23.37
2023-12-29T16:23:21.724Z,23.36
2023-12-29T16:25:48.129Z,23.35
2023-12-29T16:28:14.443Z,23.35
2023-12-29T16:30:40.774Z,23.35
2023-12-29T16:33:07.143Z,23.35
2023-12-29T16:35:33.339Z,23.32
2023-12-29T16:37:59.688Z,23.34
2023-12-29T16:40:26.061Z,23.34
2023-12-29T16:42:52.312Z,23.29
2023-12-29T16:45:18.640Z,23.32
2023-12-29T16:47:45.019Z,23.30
2023-12-29T16:50:11.235Z,23.31
2023-12-29T16:52:37.643Z,23.30
2023-12-29T16:55:04.001Z,23.29
2023-12-29T16:57:30.163Z,23.29
2023-12-29T16:59:56.507Z,23.27
2023-12-29T17:02:22.824Z,23.26
2023-12-29T17:04:49.389Z,23.26
2023-12-29T17:07:15.783Z,23.25
2023-12-29T17:09:42.239Z,23.23
2023-12-29T17:12:08.620Z,23.25
2023-12-29T17:14:35.056Z,23.24
2023-12-29T17:17:01.385Z,23.22
2023-12-29T17:19:27.951Z,23.23
2023-12-29T17:21:54.086Z,23.21
2023-12-29T17:24:20.381Z,23.21
2023-12-29T17:26:46.712Z,23.18
2023-12-29T17:29:13.085Z,23.16
2023-12-29T17:31:39.375Z,23.17
2023-12-29T17:34:05.801Z,23.17
2023-12-29T17:36:32.040Z,23.15
2023-12-29T17:38:58.510Z,23.15
2023-12-29T17:41:24.867Z,23.13
2023-12-29T17:43:51.173Z,23.14
2023-12-29T17:46:17.525Z,23.13
2023-12-29T17:48:43.945Z,23.11
2023-12-29T17:51:10.247Z,23.11
2023-12-29T17:53:36.611Z,23.09
2023-12-29T17:56:02.857Z,23.11
2023-12-29T17:58:29.172Z,23.09
2023-12-29T18:00:55.451Z,23.06
2023-12-29T18:03:21.726Z,23.06
2023-12-29T18:05:48.124Z,23.01
2023-12-29T18:08:14.492Z,23.00
2023-12-29T18:10:40.785Z,23.00
2023-12-29T18:13:07.261Z,22.97
2023-12-29T18:15:33.640Z,22.95
2023-12-29T18:18:00.039Z,22.94
2023-12-29T18:20:26.307Z,22.92
2023-12-29T18:22:52.642Z,22.87
2023-12-29T18:25:19.118Z,22.87
2023-12-29T18:27:45.366Z,22.85
2023-12-29T18:30:11.727Z,22.85
2023-12-29T18:32:38.030Z,22.83
2023-12-29T18:35:04.372Z,22.83
2023-12-29T18:37:30.699Z,22.81
2023-12-29T18:39:57.038Z,22.79
2023-12-29T18:42:23.287Z,22.80
2023-12-29T18:44:49.614Z,22.77
2023-12-29T18:47:16.127Z,22.76
2023-12-29T18:49:42.560Z,22.78
2023-12-29T18:52:08.852Z,22.73
2023-12-29T18:54:35.128Z,22.75
2023-12-29T18:57:01.404Z,22.73
2023-12-29T18:59:27.744Z,22.69
2023-12-29T19:01:54.653Z,22.69
2023-12-29T19:04:20.484Z,22.71
2023-12-29T19:06:46.798Z,22.70
2023-12-29T19:09:13.064Z,22.70
2023-12-29T19:11:39.420Z,22.69
2023-12-29T19:14:05.786Z,22.68
2023-12-29T19:16:32.118Z,22.68
2023-12-29T19:18:58.517Z,22.66
2023-12-29T19:21:24.762Z,22.66
2023-12-29T19:23:51.115Z,22.66
2023-12-29T19:26:17.436Z,22.65
2023-12-29T19:28:43.781Z,22.64
2023-12-29T19:31:10.229Z,22.64
2023-12-29T19:33:37.377Z,22.62
2023-12-29T19:36:02.835Z,22.61
2023-12-29T19:38:29.078Z,22.60
2023-12-29T19:40:55.362Z,22.58
2023-12-29T19:43:21.717Z,22.58
2023-12-29T19:45:48.051Z,22.58
2023-12-29T19:48:14.500Z,22.56
2023-12-29T19:50:40.675Z,22.56
2023-12-29T19:53:07.264Z,22.55
2023-12-29T19:55:33.374Z,22.54
2023-12-29T19:57:59.681Z,22.54
2023-12-29T20:00:25.990Z,22.53
2023-12-29T20:02:52.318Z,22.53
2023-12-29T20:05:18.807Z,22.51
2023-12-29T20:07:45.063Z,22.51
2023-12-29T20:10:11.436Z,22.52
2023-12-29T20:12:37.835Z,22.50
2023-12-29T20:15:04.156Z,22.49
2023-12-29T20:17:30.576Z,22.47
2023-12-29T20:19:56.936Z,22.48
2023-12-29T20:22:23.411Z,22.46
2023-12-29T20:24:49.549Z,22.47
2023-12-29T20:27:15.835Z,22.46
2023-12-29T20:29:42.205Z,22.44
2023-12-29T20:32:08.524Z,22.43
2023-12-29T20:34:34.978Z,22.41
2023-12-29T20:37:01.278Z,22.40
2023-12-29T20:39:27.567Z,22.40
2023-12-29T20:41:53.911Z,22.39
2023-12-29T20:44:20.219Z,22.39
2023-12-29T20:46:46.563Z,22.37
2023-12-29T20:49:13.001Z,22.38
2023-12-29T20:51:39.247Z,22.36
2023-12-29T20:54:05.648Z,22.37
2023-12-29T20:56:31.966Z,22.35
2023-12-29T20:58:58.337Z,22.36
2023-12-29T21:01:24.908Z,22.35
2023-12-29T21:03:51.158Z,22.35
2023-12-29T21:06:17.726Z,22.33
2023-12-29T21:08:43.728Z,22.33
2023-12-29T21:11:10.042Z,22.32
2023-12-29T21:13:36.573Z,22.31
2023-12-29T21:16:02.798Z,22.31
2023-12-29T21:18:29.158Z,22.28
2023-12-29T21:20:55.401Z,22.28
2023-12-29T21:23:21.721Z,22.27
2023-12-29T21:25:48.156Z,22.26
2023-12-29T21:28:14.493Z,22.25
2023-12-29T21:30:40.774Z,22.24
2023-12-29T21:33:07.127Z,22.23
2023-12-29T21:35:33.484Z,22.23
2023-12-29T21:37:59.723Z,22.23
2023-12-29T21:40:26.083Z,22.21
2023-12-29T21:42:52.366Z,22.21
2023-12-29T21:45:18.653Z,22.21
2023-12-29T21:47:44.986Z,22.20
2023-12-29T21:50:11.301Z,22.20
2023-12-29T21:52:37.608Z,22.19
2023-12-29T21:55:03.998Z,22.18
2023-12-29T21:57:30.289Z,22.20
2023-12-29T21:59:56.565Z,22.19
2023-12-29T22:02:22.871Z,22.17
2023-12-29T22:04:49.310Z,22.18
2023-12-29T22:07:15.604Z,22.16
2023-12-29T22:09:41.883Z,22.16
2023-12-29T22:12:08.229Z,22.14
2023-12-29T22:14:34.645Z,22.16
2023-12-29T22:17:00.886Z,22.13
2023-12-29T22:19:29.837Z,22.13
2023-12-29T22:21:53.698Z,22.11
2023-12-29T22:24:19.989Z,22.11
2023-12-29T22:26:46.295Z,22.12
2023-12-29T22:29:12.678Z,22.11
2023-12-29T22:31:39.031Z,22.12
2023-12-29T22:34:05.410Z,22.10
2023-12-29T22:36:31.617Z,22.10
2023-12-29T22:38:57.926Z,22.10
2023-12-29T22:41:24.238Z,22.09
2023-12-29T22:43:50.624Z,22.09
2023-12-29T22:46:20.771Z,22.08
2023-12-29T22:48:43.381Z,22.07
2023-12-29T22:51:09.618Z,22.08
2023-12-29T22:53:35.975Z,22.07
2023-12-29T22:56:02.310Z,22.06
2023-12-29T22:58:28.657Z,22.06
2023-12-29T23:00:54.965Z,22.05
2023-12-29T23:03:21.322Z,22.05
2023-12-29T23:05:47.575Z,22.05
2023-12-29T23:08:13.968Z,22.04
2023-12-29T23:10:40.349Z,22.04
2023-12-29T23:13:06.646Z,22.02
2023-12-29T23:15:32.968Z,22.02
2023-12-29T23:17:59.250Z,22.03
2023-12-29T23:20:25.641Z,22.02
2023-12-29T23:22:51.978Z,22.01
2023-12-29T23:25:18.337Z,22.01
2023-12-29T23:27:44.613Z,21.99
2023-12-29T23:30:10.951Z,22.01
2023-12-29T23:32:37.264Z,21.99
2023-12-29T23:35:10.325Z,21.99
2023-12-29T23:37:29.934Z,22.01
2023-12-29T23:39:56.300Z,21.97
2023-12-29T23:42:22.620Z,21.98
2023-12-29T23:44:48.948Z,21.98
2023-12-29T23:47:15.385Z,21.96
2023-12-29T23:49:41.726Z,21.98
2023-12-29T23:52:08.105Z,21.98
2023-12-29T23:54:34.385Z,21.97
2023-12-29T23:57:00.812Z,21.98
2023-12-29T23:59:27.112Z,21.99
